sensor_id;sensor_type;location;lat;lon;timestamp;P1;durP1;ratioP1;P2;durP2;ratioP2
11675;SDS011;5894;42.768;23.404;2023-07-13T00:01:52;6.50;;;5.90;;
11675;SDS011;5894;42.768;23.404;2023-07-13T00:04:21;7.18;;;6.07;;
11675;SDS011;5894;42.768;23.404;2023-07-13T00:06:51;8.27;;;6.47;;
11675;SDS011;5894;42.768;23.404;2023-07-13T00:09:20;7.03;;;6.22;;
11675;SDS011;5894;42.768;23.404;2023-07-13T00:11:50;6.43;;;5.82;;
11675;SDS011;5894;42.768;23.404;2023-07-13T00:14:19;6.78;;;6.07;;
11675;SDS011;5894;42.768;23.404;2023-07-13T00:16:46;7.22;;;6.03;;
11675;SDS011;5894;42.768;23.404;2023-07-13T00:19:13;6.43;;;5.80;;
11675;SDS011;5894;42.768;23.404;2023-07-13T00:21:41;7.47;;;6.63;;
11675;SDS011;5894;42.768;23.404;2023-07-13T00:24:12;7.20;;;6.07;;
11675;SDS011;5894;42.768;23.404;2023-07-13T00:26:41;7.60;;;6.18;;
11675;SDS011;5894;42.768;23.404;2023-07-13T00:29:09;6.47;;;5.78;;
11675;SDS011;5894;42.768;23.404;2023-07-13T00:31:37;6.82;;;5.60;;
11675;SDS011;5894;42.768;23.404;2023-07-13T00:34:04;7.03;;;6.20;;
11675;SDS011;5894;42.768;23.404;2023-07-13T00:36:31;6.40;;;5.78;;
11675;SDS011;5894;42.768;23.404;2023-07-13T00:38:58;7.80;;;6.10;;
11675;SDS011;5894;42.768;23.404;2023-07-13T00:41:27;7.80;;;6.38;;
11675;SDS011;5894;42.768;23.404;2023-07-13T00:43:55;7.43;;;5.93;;
11675;SDS011;5894;42.768;23.404;2023-07-13T00:46:24;7.13;;;6.43;;
11675;SDS011;5894;42.768;23.404;2023-07-13T00:48:53;8.40;;;6.20;;
11675;SDS011;5894;42.768;23.404;2023-07-13T00:51:28;6.35;;;5.75;;
11675;SDS011;5894;42.768;23.404;2023-07-13T00:54:00;7.15;;;6.45;;
11675;SDS011;5894;42.768;23.404;2023-07-13T00:56:35;7.88;;;6.50;;
11675;SDS011;5894;42.768;23.404;2023-07-13T00:59:04;6.90;;;6.20;;
11675;SDS011;5894;42.768;23.404;2023-07-13T01:01:33;6.95;;;6.25;;
11675;SDS011;5894;42.768;23.404;2023-07-13T01:04:02;8.68;;;6.80;;
11675;SDS011;5894;42.768;23.404;2023-07-13T01:06:33;7.65;;;6.22;;
11675;SDS011;5894;42.768;23.404;2023-07-13T01:09:01;8.05;;;6.15;;
11675;SDS011;5894;42.768;23.404;2023-07-13T01:11:30;8.27;;;6.47;;
11675;SDS011;5894;42.768;23.404;2023-07-13T01:13:58;7.47;;;6.32;;
11675;SDS011;5894;42.768;23.404;2023-07-13T01:16:28;7.65;;;6.30;;
11675;SDS011;5894;42.768;23.404;2023-07-13T01:18:57;7.68;;;6.63;;
11675;SDS011;5894;42.768;23.404;2023-07-13T01:21:28;6.85;;;6.20;;
11675;SDS011;5894;42.768;23.404;2023-07-13T01:23:58;6.95;;;6.20;;
11675;SDS011;5894;42.768;23.404;2023-07-13T01:26:25;10.40;;;6.68;;
11675;SDS011;5894;42.768;23.404;2023-07-13T01:28:52;9.50;;;6.65;;
11675;SDS011;5894;42.768;23.404;2023-07-13T01:31:21;6.95;;;6.25;;
11675;SDS011;5894;42.768;23.404;2023-07-13T01:33:50;6.78;;;6.18;;
11675;SDS011;5894;42.768;23.404;2023-07-13T01:36:19;8.70;;;6.63;;
11675;SDS011;5894;42.768;23.404;2023-07-13T01:38:48;7.13;;;6.43;;
11675;SDS011;5894;42.768;23.404;2023-07-13T01:41:15;6.82;;;6.20;;
11675;SDS011;5894;42.768;23.404;2023-07-13T01:43:43;9.10;;;6.97;;
11675;SDS011;5894;42.768;23.404;2023-07-13T01:46:10;9.70;;;6.45;;
11675;SDS011;5894;42.768;23.404;2023-07-13T01:48:37;8.68;;;6.40;;
11675;SDS011;5894;42.768;23.404;2023-07-13T01:51:04;7.22;;;6.43;;
11675;SDS011;5894;42.768;23.404;2023-07-13T01:53:31;7.45;;;6.72;;
11675;SDS011;5894;42.768;23.404;2023-07-13T01:56:02;7.10;;;6.15;;
11675;SDS011;5894;42.768;23.404;2023-07-13T01:58:29;6.85;;;6.20;;
11675;SDS011;5894;42.768;23.404;2023-07-13T02:00:56;6.75;;;6.05;;
11675;SDS011;5894;42.768;23.404;2023-07-13T02:03:23;8.52;;;6.40;;
11675;SDS011;5894;42.768;23.404;2023-07-13T02:05:50;11.15;;;6.25;;
11675;SDS011;5894;42.768;23.404;2023-07-13T02:08:17;10.25;;;6.40;;
11675;SDS011;5894;42.768;23.404;2023-07-13T02:10:46;6.97;;;6.28;;
11675;SDS011;5894;42.768;23.404;2023-07-13T02:13:14;7.15;;;5.82;;
11675;SDS011;5894;42.768;23.404;2023-07-13T02:15:41;10.23;;;6.20;;
11675;SDS011;5894;42.768;23.404;2023-07-13T02:18:08;7.75;;;5.72;;
11675;SDS011;5894;42.768;23.404;2023-07-13T02:20:35;16.67;;;6.25;;
11675;SDS011;5894;42.768;23.404;2023-07-13T02:23:03;7.05;;;6.30;;
11675;SDS011;5894;42.768;23.404;2023-07-13T02:25:30;7.03;;;5.78;;
11675;SDS011;5894;42.768;23.404;2023-07-13T02:27:57;7.43;;;6.43;;
11675;SDS011;5894;42.768;23.404;2023-07-13T02:30:26;8.05;;;6.13;;
11675;SDS011;5894;42.768;23.404;2023-07-13T02:32:55;6.78;;;6.07;;
11675;SDS011;5894;42.768;23.404;2023-07-13T02:35:22;9.73;;;6.10;;
11675;SDS011;5894;42.768;23.404;2023-07-13T02:37:49;7.90;;;6.03;;
11675;SDS011;5894;42.768;23.404;2023-07-13T02:40:16;6.88;;;5.70;;
11675;SDS011;5894;42.768;23.404;2023-07-13T02:42:43;6.95;;;6.15;;
11675;SDS011;5894;42.768;23.404;2023-07-13T02:45:11;7.45;;;6.15;;
11675;SDS011;5894;42.768;23.404;2023-07-13T02:47:41;8.20;;;6.50;;
11675;SDS011;5894;42.768;23.404;2023-07-13T02:50:10;6.95;;;5.78;;
11675;SDS011;5894;42.768;23.404;2023-07-13T02:52:37;8.95;;;5.80;;
11675;SDS011;5894;42.768;23.404;2023-07-13T02:55:04;7.55;;;6.28;;
11675;SDS011;5894;42.768;23.404;2023-07-13T02:57:32;8.32;;;6.18;;
11675;SDS011;5894;42.768;23.404;2023-07-13T02:59:59;7.72;;;5.93;;
11675;SDS011;5894;42.768;23.404;2023-07-13T03:02:30;9.20;;;6.45;;
11675;SDS011;5894;42.768;23.404;2023-07-13T03:04:59;7.72;;;6.00;;
11675;SDS011;5894;42.768;23.404;2023-07-13T03:07:26;8.10;;;6.40;;
11675;SDS011;5894;42.768;23.404;2023-07-13T03:09:55;8.88;;;5.97;;
11675;SDS011;5894;42.768;23.404;2023-07-13T03:12:26;8.50;;;6.38;;
11675;SDS011;5894;42.768;23.404;2023-07-13T03:14:54;6.93;;;6.20;;
11675;SDS011;5894;42.768;23.404;2023-07-13T03:17:21;7.32;;;6.43;;
11675;SDS011;5894;42.768;23.404;2023-07-13T03:19:48;6.55;;;5.95;;
11675;SDS011;5894;42.768;23.404;2023-07-13T03:22:19;7.57;;;6.45;;
11675;SDS011;5894;42.768;23.404;2023-07-13T03:24:46;7.93;;;6.18;;
11675;SDS011;5894;42.768;23.404;2023-07-13T03:27:14;6.88;;;6.18;;
11675;SDS011;5894;42.768;23.404;2023-07-13T03:29:42;9.40;;;6.80;;
11675;SDS011;5894;42.768;23.404;2023-07-13T03:32:11;7.40;;;6.60;;
11675;SDS011;5894;42.768;23.404;2023-07-13T03:34:38;10.70;;;6.28;;
11675;SDS011;5894;42.768;23.404;2023-07-13T03:37:06;7.50;;;6.40;;
11675;SDS011;5894;42.768;23.404;2023-07-13T03:39:36;7.53;;;6.18;;
11675;SDS011;5894;42.768;23.404;2023-07-13T03:42:04;12.45;;;7.30;;
11675;SDS011;5894;42.768;23.404;2023-07-13T03:44:32;9.75;;;6.82;;
11675;SDS011;5894;42.768;23.404;2023-07-13T03:46:59;11.18;;;6.80;;
11675;SDS011;5894;42.768;23.404;2023-07-13T03:49:26;10.93;;;6.82;;
11675;SDS011;5894;42.768;23.404;2023-07-13T03:51:53;11.93;;;6.93;;
11675;SDS011;5894;42.768;23.404;2023-07-13T03:54:20;10.70;;;6.72;;
11675;SDS011;5894;42.768;23.404;2023-07-13T03:56:49;11.63;;;6.85;;
11675;SDS011;5894;42.768;23.404;2023-07-13T03:59:17;7.70;;;6.72;;
11675;SDS011;5894;42.768;23.404;2023-07-13T04:01:45;8.95;;;7.07;;
11675;SDS011;5894;42.768;23.404;2023-07-13T04:04:12;8.68;;;6.85;;
11675;SDS011;5894;42.768;23.404;2023-07-13T04:06:41;9.32;;;7.38;;
11675;SDS011;5894;42.768;23.404;2023-07-13T04:09:10;10.70;;;6.97;;
11675;SDS011;5894;42.768;23.404;2023-07-13T04:11:38;16.02;;;7.10;;
11675;SDS011;5894;42.768;23.404;2023-07-13T04:14:06;10.77;;;7.82;;
11675;SDS011;5894;42.768;23.404;2023-07-13T04:16:33;12.30;;;7.85;;
11675;SDS011;5894;42.768;23.404;2023-07-13T04:19:00;16.60;;;7.68;;
11675;SDS011;5894;42.768;23.404;2023-07-13T04:21:28;15.75;;;8.30;;
11675;SDS011;5894;42.768;23.404;2023-07-13T04:23:56;12.23;;;7.97;;
11675;SDS011;5894;42.768;23.404;2023-07-13T04:26:24;13.73;;;7.47;;
11675;SDS011;5894;42.768;23.404;2023-07-13T04:28:51;9.52;;;8.13;;
11675;SDS011;5894;42.768;23.404;2023-07-13T04:31:20;12.35;;;8.32;;
11675;SDS011;5894;42.768;23.404;2023-07-13T04:33:47;11.35;;;8.15;;
11675;SDS011;5894;42.768;23.404;2023-07-13T04:36:16;11.40;;;8.25;;
11675;SDS011;5894;42.768;23.404;2023-07-13T04:38:43;12.43;;;8.57;;
11675;SDS011;5894;42.768;23.404;2023-07-13T04:41:10;11.95;;;8.20;;
11675;SDS011;5894;42.768;23.404;2023-07-13T04:43:39;10.52;;;8.00;;
11675;SDS011;5894;42.768;23.404;2023-07-13T04:46:06;13.52;;;9.07;;
11675;SDS011;5894;42.768;23.404;2023-07-13T04:48:36;13.35;;;8.40;;
11675;SDS011;5894;42.768;23.404;2023-07-13T04:51:04;12.82;;;7.85;;
11675;SDS011;5894;42.768;23.404;2023-07-13T04:53:31;11.43;;;8.05;;
11675;SDS011;5894;42.768;23.404;2023-07-13T04:55:59;10.50;;;8.13;;
11675;SDS011;5894;42.768;23.404;2023-07-13T04:58:27;10.75;;;8.18;;
11675;SDS011;5894;42.768;23.404;2023-07-13T05:00:59;10.50;;;8.23;;
11675;SDS011;5894;42.768;23.404;2023-07-13T05:03:26;8.48;;;7.68;;
11675;SDS011;5894;42.768;23.404;2023-07-13T05:05:55;9.18;;;8.23;;
11675;SDS011;5894;42.768;23.404;2023-07-13T05:08:23;8.63;;;7.80;;
11675;SDS011;5894;42.768;23.404;2023-07-13T05:10:50;14.05;;;8.30;;
11675;SDS011;5894;42.768;23.404;2023-07-13T05:13:18;8.75;;;7.85;;
11675;SDS011;5894;42.768;23.404;2023-07-13T05:15:47;11.30;;;8.32;;
11675;SDS011;5894;42.768;23.404;2023-07-13T05:18:21;11.23;;;8.02;;
11675;SDS011;5894;42.768;23.404;2023-07-13T05:20:56;9.13;;;7.75;;
11675;SDS011;5894;42.768;23.404;2023-07-13T05:23:24;10.32;;;7.82;;
11675;SDS011;5894;42.768;23.404;2023-07-13T05:25:51;8.85;;;7.93;;
11675;SDS011;5894;42.768;23.404;2023-07-13T05:28:18;8.85;;;7.95;;
11675;SDS011;5894;42.768;23.404;2023-07-13T05:30:45;10.52;;;8.20;;
11675;SDS011;5894;42.768;23.404;2023-07-13T05:33:12;9.02;;;8.20;;
11675;SDS011;5894;42.768;23.404;2023-07-13T05:35:39;10.48;;;9.13;;
11675;SDS011;5894;42.768;23.404;2023-07-13T05:38:07;13.07;;;9.82;;
11675;SDS011;5894;42.768;23.404;2023-07-13T05:40:35;12.40;;;11.10;;
11675;SDS011;5894;42.768;23.404;2023-07-13T05:43:02;12.82;;;10.30;;
11675;SDS011;5894;42.768;23.404;2023-07-13T05:45:30;10.52;;;9.52;;
11675;SDS011;5894;42.768;23.404;2023-07-13T05:47:56;11.85;;;10.65;;
11675;SDS011;5894;42.768;23.404;2023-07-13T05:50:23;13.93;;;10.15;;
11675;SDS011;5894;42.768;23.404;2023-07-13T05:52:51;11.00;;;9.73;;
11675;SDS011;5894;42.768;23.404;2023-07-13T05:55:20;10.55;;;9.55;;
11675;SDS011;5894;42.768;23.404;2023-07-13T05:57:47;11.38;;;9.38;;
11675;SDS011;5894;42.768;23.404;2023-07-13T06:00:15;9.00;;;8.18;;
11675;SDS011;5894;42.768;23.404;2023-07-13T06:02:42;8.77;;;7.70;;
11675;SDS011;5894;42.768;23.404;2023-07-13T06:05:09;9.05;;;7.57;;
11675;SDS011;5894;42.768;23.404;2023-07-13T06:07:37;9.10;;;7.25;;
11675;SDS011;5894;42.768;23.404;2023-07-13T06:10:05;13.50;;;8.35;;
11675;SDS011;5894;42.768;23.404;2023-07-13T06:12:34;11.38;;;7.60;;
11675;SDS011;5894;42.768;23.404;2023-07-13T06:15:01;13.45;;;8.00;;
11675;SDS011;5894;42.768;23.404;2023-07-13T06:17:28;9.75;;;8.75;;
11675;SDS011;5894;42.768;23.404;2023-07-13T06:19:55;9.90;;;8.10;;
11675;SDS011;5894;42.768;23.404;2023-07-13T06:22:22;11.75;;;7.90;;
11675;SDS011;5894;42.768;23.404;2023-07-13T06:24:49;12.38;;;8.25;;
11675;SDS011;5894;42.768;23.404;2023-07-13T06:27:16;12.90;;;8.20;;
11675;SDS011;5894;42.768;23.404;2023-07-13T06:29:45;10.32;;;7.80;;
11675;SDS011;5894;42.768;23.404;2023-07-13T06:32:12;10.68;;;8.35;;
11675;SDS011;5894;42.768;23.404;2023-07-13T06:34:39;13.20;;;8.32;;
11675;SDS011;5894;42.768;23.404;2023-07-13T06:37:06;14.40;;;7.80;;
11675;SDS011;5894;42.768;23.404;2023-07-13T06:39:33;11.77;;;7.63;;
11675;SDS011;5894;42.768;23.404;2023-07-13T06:42:00;14.77;;;7.72;;
11675;SDS011;5894;42.768;23.404;2023-07-13T06:44:27;13.85;;;7.65;;
11675;SDS011;5894;42.768;23.404;2023-07-13T06:46:56;10.50;;;7.30;;
11675;SDS011;5894;42.768;23.404;2023-07-13T06:49:23;13.75;;;7.93;;
11675;SDS011;5894;42.768;23.404;2023-07-13T06:51:50;10.70;;;7.50;;
11675;SDS011;5894;42.768;23.404;2023-07-13T06:54:17;13.35;;;7.57;;
11675;SDS011;5894;42.768;23.404;2023-07-13T06:56:44;10.18;;;7.15;;
11675;SDS011;5894;42.768;23.404;2023-07-13T06:59:11;25.55;;;7.75;;
11675;SDS011;5894;42.768;23.404;2023-07-13T07:01:38;8.18;;;6.97;;
11675;SDS011;5894;42.768;23.404;2023-07-13T07:04:07;8.10;;;6.60;;
11675;SDS011;5894;42.768;23.404;2023-07-13T07:06:34;10.77;;;7.00;;
11675;SDS011;5894;42.768;23.404;2023-07-13T07:09:01;10.48;;;6.72;;
11675;SDS011;5894;42.768;23.404;2023-07-13T07:11:28;13.13;;;6.88;;
11675;SDS011;5894;42.768;23.404;2023-07-13T07:13:55;12.20;;;6.93;;
11675;SDS011;5894;42.768;23.404;2023-07-13T07:16:24;7.93;;;6.55;;
11675;SDS011;5894;42.768;23.404;2023-07-13T07:18:52;7.35;;;6.65;;
11675;SDS011;5894;42.768;23.404;2023-07-13T07:21:20;8.57;;;7.28;;
11675;SDS011;5894;42.768;23.404;2023-07-13T07:23:48;9.43;;;6.95;;
11675;SDS011;5894;42.768;23.404;2023-07-13T07:26:15;10.45;;;7.32;;
11675;SDS011;5894;42.768;23.404;2023-07-13T07:28:42;9.48;;;7.30;;
11675;SDS011;5894;42.768;23.404;2023-07-13T07:31:09;9.60;;;6.95;;
11675;SDS011;5894;42.768;23.404;2023-07-13T07:33:37;10.13;;;6.85;;
11675;SDS011;5894;42.768;23.404;2023-07-13T07:36:04;8.68;;;7.00;;
11675;SDS011;5894;42.768;23.404;2023-07-13T07:38:33;8.98;;;6.65;;
11675;SDS011;5894;42.768;23.404;2023-07-13T07:41:02;10.35;;;6.60;;
11675;SDS011;5894;42.768;23.404;2023-07-13T07:43:30;8.10;;;6.50;;
11675;SDS011;5894;42.768;23.404;2023-07-13T07:45:57;8.18;;;6.55;;
11675;SDS011;5894;42.768;23.404;2023-07-13T07:48:24;8.20;;;6.13;;
11675;SDS011;5894;42.768;23.404;2023-07-13T07:50:51;8.35;;;6.60;;
11675;SDS011;5894;42.768;23.404;2023-07-13T07:53:18;8.82;;;6.55;;
11675;SDS011;5894;42.768;23.404;2023-07-13T07:55:46;7.43;;;6.60;;
11675;SDS011;5894;42.768;23.404;2023-07-13T07:58:14;7.47;;;6.68;;
11675;SDS011;5894;42.768;23.404;2023-07-13T08:00:41;7.55;;;6.10;;
11675;SDS011;5894;42.768;23.404;2023-07-13T08:03:08;9.45;;;7.18;;
11675;SDS011;5894;42.768;23.404;2023-07-13T08:05:36;8.15;;;6.70;;
11675;SDS011;5894;42.768;23.404;2023-07-13T08:08:03;8.27;;;7.43;;
11675;SDS011;5894;42.768;23.404;2023-07-13T08:10:30;8.02;;;6.65;;
11675;SDS011;5894;42.768;23.404;2023-07-13T08:12:59;8.00;;;7.03;;
11675;SDS011;5894;42.768;23.404;2023-07-13T08:15:26;7.80;;;6.97;;
11675;SDS011;5894;42.768;23.404;2023-07-13T08:17:53;8.98;;;6.60;;
11675;SDS011;5894;42.768;23.404;2023-07-13T08:20:20;10.20;;;7.10;;
11675;SDS011;5894;42.768;23.404;2023-07-13T08:22:47;9.65;;;6.80;;
11675;SDS011;5894;42.768;23.404;2023-07-13T08:25:14;10.15;;;6.85;;
11675;SDS011;5894;42.768;23.404;2023-07-13T08:27:41;11.10;;;9.32;;
11675;SDS011;5894;42.768;23.404;2023-07-13T08:30:10;10.23;;;7.40;;
11675;SDS011;5894;42.768;23.404;2023-07-13T08:32:37;8.63;;;6.80;;
11675;SDS011;5894;42.768;23.404;2023-07-13T08:35:05;11.05;;;7.82;;
11675;SDS011;5894;42.768;23.404;2023-07-13T08:37:32;9.77;;;7.38;;
11675;SDS011;5894;42.768;23.404;2023-07-13T08:39:59;11.60;;;7.85;;
11675;SDS011;5894;42.768;23.404;2023-07-13T08:42:32;11.77;;;7.35;;
11675;SDS011;5894;42.768;23.404;2023-07-13T08:45:11;8.82;;;8.00;;
11675;SDS011;5894;42.768;23.404;2023-07-13T08:47:48;8.85;;;7.75;;
11675;SDS011;5894;42.768;23.404;2023-07-13T08:50:35;11.48;;;6.40;;
11675;SDS011;5894;42.768;23.404;2023-07-13T08:53:09;8.05;;;6.47;;
11675;SDS011;5894;42.768;23.404;2023-07-13T08:55:39;9.02;;;6.53;;
11675;SDS011;5894;42.768;23.404;2023-07-13T08:58:11;8.93;;;6.63;;
11675;SDS011;5894;42.768;23.404;2023-07-13T09:00:44;9.77;;;7.10;;
11675;SDS011;5894;42.768;23.404;2023-07-13T09:03:18;7.32;;;6.63;;
11675;SDS011;5894;42.768;23.404;2023-07-13T09:05:53;8.40;;;6.93;;
11675;SDS011;5894;42.768;23.404;2023-07-13T09:11:17;10.52;;;6.32;;
11675;SDS011;5894;42.768;23.404;2023-07-13T09:13:56;7.97;;;6.43;;
11675;SDS011;5894;42.768;23.404;2023-07-13T09:16:31;12.95;;;6.88;;
11675;SDS011;5894;42.768;23.404;2023-07-13T09:18:59;8.45;;;6.65;;
11675;SDS011;5894;42.768;23.404;2023-07-13T09:21:32;10.13;;;6.95;;
11675;SDS011;5894;42.768;23.404;2023-07-13T09:24:15;7.90;;;6.70;;
11675;SDS011;5894;42.768;23.404;2023-07-13T09:26:55;8.35;;;6.88;;
11675;SDS011;5894;42.768;23.404;2023-07-13T09:29:30;39.05;;;8.73;;
11675;SDS011;5894;42.768;23.404;2023-07-13T09:32:02;7.80;;;6.97;;
11675;SDS011;5894;42.768;23.404;2023-07-13T09:34:34;20.52;;;6.97;;
11675;SDS011;5894;42.768;23.404;2023-07-13T09:37:01;9.60;;;6.55;;
11675;SDS011;5894;42.768;23.404;2023-07-13T09:39:30;7.50;;;6.60;;
11675;SDS011;5894;42.768;23.404;2023-07-13T09:42:03;11.70;;;7.10;;
11675;SDS011;5894;42.768;23.404;2023-07-13T09:44:44;10.38;;;6.45;;
11675;SDS011;5894;42.768;23.404;2023-07-13T09:47:23;11.55;;;6.63;;
11675;SDS011;5894;42.768;23.404;2023-07-13T09:49:56;9.68;;;6.78;;
11675;SDS011;5894;42.768;23.404;2023-07-13T09:52:24;9.80;;;6.00;;
11675;SDS011;5894;42.768;23.404;2023-07-13T09:54:53;13.27;;;6.70;;
11675;SDS011;5894;42.768;23.404;2023-07-13T09:57:25;28.27;;;8.15;;
11675;SDS011;5894;42.768;23.404;2023-07-13T09:59:54;10.90;;;6.53;;
11675;SDS011;5894;42.768;23.404;2023-07-13T10:02:27;9.80;;;6.13;;
11675;SDS011;5894;42.768;23.404;2023-07-13T10:04:56;11.95;;;6.97;;
11675;SDS011;5894;42.768;23.404;2023-07-13T10:07:24;13.30;;;6.60;;
11675;SDS011;5894;42.768;23.404;2023-07-13T10:09:52;10.40;;;6.35;;
11675;SDS011;5894;42.768;23.404;2023-07-13T10:12:20;7.18;;;5.93;;
11675;SDS011;5894;42.768;23.404;2023-07-13T10:14:50;10.07;;;5.65;;
11675;SDS011;5894;42.768;23.404;2023-07-13T10:21:13;9.52;;;6.13;;
11675;SDS011;5894;42.768;23.404;2023-07-13T10:23:43;7.05;;;5.60;;
11675;SDS011;5894;42.768;23.404;2023-07-13T10:26:15;11.00;;;5.38;;
11675;SDS011;5894;42.768;23.404;2023-07-13T10:28:46;9.15;;;5.60;;
11675;SDS011;5894;42.768;23.404;2023-07-13T10:31:18;6.80;;;5.25;;
11675;SDS011;5894;42.768;23.404;2023-07-13T10:33:46;10.70;;;5.05;;
11675;SDS011;5894;42.768;23.404;2023-07-13T10:36:16;10.60;;;4.97;;
11675;SDS011;5894;42.768;23.404;2023-07-13T10:38:53;7.13;;;5.57;;
11675;SDS011;5894;42.768;23.404;2023-07-13T10:41:22;7.07;;;4.90;;
11675;SDS011;5894;42.768;23.404;2023-07-13T10:43:52;6.80;;;4.90;;
11675;SDS011;5894;42.768;23.404;2023-07-13T10:46:23;8.88;;;5.10;;
11675;SDS011;5894;42.768;23.404;2023-07-13T10:48:54;7.25;;;4.85;;
11675;SDS011;5894;42.768;23.404;2023-07-13T10:51:26;6.72;;;4.82;;
11675;SDS011;5894;42.768;23.404;2023-07-13T10:54:12;7.70;;;4.60;;
11675;SDS011;5894;42.768;23.404;2023-07-13T10:56:43;7.53;;;4.75;;
11675;SDS011;5894;42.768;23.404;2023-07-13T10:59:12;8.93;;;4.65;;
11675;SDS011;5894;42.768;23.404;2023-07-13T11:01:48;5.60;;;4.28;;
11675;SDS011;5894;42.768;23.404;2023-07-13T11:04:19;6.38;;;4.40;;
11675;SDS011;5894;42.768;23.404;2023-07-13T11:06:49;8.93;;;5.07;;
11675;SDS011;5894;42.768;23.404;2023-07-13T11:09:36;7.97;;;4.38;;
11675;SDS011;5894;42.768;23.404;2023-07-13T11:12:09;6.80;;;4.70;;
11675;SDS011;5894;42.768;23.404;2023-07-13T11:15:05;6.20;;;4.10;;
11675;SDS011;5894;42.768;23.404;2023-07-13T11:17:38;7.63;;;4.10;;
11675;SDS011;5894;42.768;23.404;2023-07-13T11:20:30;4.80;;;4.28;;
11675;SDS011;5894;42.768;23.404;2023-07-13T11:23:26;5.82;;;4.38;;
11675;SDS011;5894;42.768;23.404;2023-07-13T11:25:56;7.97;;;4.50;;
11675;SDS011;5894;42.768;23.404;2023-07-13T11:28:25;7.10;;;4.72;;
11675;SDS011;5894;42.768;23.404;2023-07-13T11:31:00;6.97;;;4.15;;
11675;SDS011;5894;42.768;23.404;2023-07-13T11:33:45;5.00;;;4.00;;
11675;SDS011;5894;42.768;23.404;2023-07-13T11:36:18;7.00;;;4.45;;
11675;SDS011;5894;42.768;23.404;2023-07-13T11:38:51;5.63;;;4.20;;
11675;SDS011;5894;42.768;23.404;2023-07-13T11:41:26;6.43;;;4.40;;
11675;SDS011;5894;42.768;23.404;2023-07-13T11:44:01;4.97;;;4.07;;
11675;SDS011;5894;42.768;23.404;2023-07-13T11:46:32;7.65;;;4.30;;
11675;SDS011;5894;42.768;23.404;2023-07-13T11:49:00;7.97;;;4.05;;
11675;SDS011;5894;42.768;23.404;2023-07-13T11:51:28;9.02;;;4.10;;
11675;SDS011;5894;42.768;23.404;2023-07-13T11:54:00;6.38;;;4.07;;
11675;SDS011;5894;42.768;23.404;2023-07-13T11:56:29;5.80;;;4.18;;
11675;SDS011;5894;42.768;23.404;2023-07-13T11:58:57;6.30;;;4.60;;
11675;SDS011;5894;42.768;23.404;2023-07-13T12:01:30;5.93;;;4.47;;
11675;SDS011;5894;42.768;23.404;2023-07-13T12:03:59;7.28;;;4.20;;
11675;SDS011;5894;42.768;23.404;2023-07-13T12:06:28;7.88;;;4.63;;
11675;SDS011;5894;42.768;23.404;2023-07-13T12:08:58;5.72;;;4.25;;
11675;SDS011;5894;42.768;23.404;2023-07-13T12:11:28;6.63;;;4.38;;
11675;SDS011;5894;42.768;23.404;2023-07-13T12:13:56;6.13;;;4.05;;
11675;SDS011;5894;42.768;23.404;2023-07-13T12:16:28;5.65;;;4.28;;
11675;SDS011;5894;42.768;23.404;2023-07-13T12:18:58;6.50;;;4.13;;
11675;SDS011;5894;42.768;23.404;2023-07-13T12:21:29;6.13;;;4.03;;
11675;SDS011;5894;42.768;23.404;2023-07-13T12:23:59;5.70;;;4.40;;
11675;SDS011;5894;42.768;23.404;2023-07-13T12:26:28;5.90;;;4.30;;
11675;SDS011;5894;42.768;23.404;2023-07-13T12:28:56;6.30;;;4.03;;
11675;SDS011;5894;42.768;23.404;2023-07-13T12:31:31;7.85;;;4.15;;
11675;SDS011;5894;42.768;23.404;2023-07-13T12:34:02;7.50;;;4.30;;
11675;SDS011;5894;42.768;23.404;2023-07-13T12:36:33;6.70;;;3.88;;
11675;SDS011;5894;42.768;23.404;2023-07-13T12:39:14;8.02;;;4.70;;
11675;SDS011;5894;42.768;23.404;2023-07-13T12:41:44;5.88;;;4.15;;
11675;SDS011;5894;42.768;23.404;2023-07-13T12:44:12;6.07;;;4.10;;
11675;SDS011;5894;42.768;23.404;2023-07-13T12:46:50;4.35;;;3.90;;
11675;SDS011;5894;42.768;23.404;2023-07-13T12:49:18;11.98;;;4.65;;
11675;SDS011;5894;42.768;23.404;2023-07-13T12:51:50;6.90;;;3.80;;
11675;SDS011;5894;42.768;23.404;2023-07-13T12:54:26;8.25;;;4.30;;
11675;SDS011;5894;42.768;23.404;2023-07-13T12:56:54;6.20;;;4.40;;
11675;SDS011;5894;42.768;23.404;2023-07-13T12:59:23;6.45;;;4.20;;
11675;SDS011;5894;42.768;23.404;2023-07-13T13:01:53;8.70;;;4.90;;
11675;SDS011;5894;42.768;23.404;2023-07-13T13:04:21;7.63;;;4.82;;
11675;SDS011;5894;42.768;23.404;2023-07-13T13:06:48;5.60;;;4.50;;
11675;SDS011;5894;42.768;23.404;2023-07-13T13:09:17;8.88;;;5.03;;
11675;SDS011;5894;42.768;23.404;2023-07-13T13:11:46;8.25;;;4.55;;
11675;SDS011;5894;42.768;23.404;2023-07-13T13:14:15;8.55;;;4.60;;
11675;SDS011;5894;42.768;23.404;2023-07-13T13:16:45;6.85;;;4.30;;
11675;SDS011;5894;42.768;23.404;2023-07-13T13:19:16;9.10;;;4.78;;
11675;SDS011;5894;42.768;23.404;2023-07-13T13:21:45;5.63;;;4.45;;
11675;SDS011;5894;42.768;23.404;2023-07-13T13:24:13;8.20;;;4.38;;
11675;SDS011;5894;42.768;23.404;2023-07-13T13:26:42;7.40;;;5.25;;
11675;SDS011;5894;42.768;23.404;2023-07-13T13:29:13;6.57;;;4.40;;
11675;SDS011;5894;42.768;23.404;2023-07-13T13:31:42;5.43;;;4.50;;
11675;SDS011;5894;42.768;23.404;2023-07-13T13:34:10;9.95;;;5.00;;
11675;SDS011;5894;42.768;23.404;2023-07-13T13:36:39;10.85;;;4.97;;
11675;SDS011;5894;42.768;23.404;2023-07-13T13:39:16;8.55;;;4.88;;
11675;SDS011;5894;42.768;23.404;2023-07-13T13:41:46;6.82;;;4.55;;
11675;SDS011;5894;42.768;23.404;2023-07-13T13:44:16;7.13;;;4.65;;
11675;SDS011;5894;42.768;23.404;2023-07-13T13:46:45;6.80;;;4.40;;
11675;SDS011;5894;42.768;23.404;2023-07-13T13:49:14;5.82;;;4.53;;
11675;SDS011;5894;42.768;23.404;2023-07-13T13:51:42;7.93;;;4.50;;
11675;SDS011;5894;42.768;23.404;2023-07-13T13:54:11;9.63;;;4.68;;
11675;SDS011;5894;42.768;23.404;2023-07-13T13:56:41;8.02;;;4.90;;
11675;SDS011;5894;42.768;23.404;2023-07-13T13:59:09;8.48;;;4.50;;
11675;SDS011;5894;42.768;23.404;2023-07-13T14:01:37;6.38;;;4.55;;
11675;SDS011;5894;42.768;23.404;2023-07-13T14:04:05;6.20;;;5.10;;
11675;SDS011;5894;42.768;23.404;2023-07-13T14:06:33;7.18;;;4.28;;
11675;SDS011;5894;42.768;23.404;2023-07-13T14:09:00;5.93;;;4.65;;
11675;SDS011;5894;42.768;23.404;2023-07-13T14:11:29;6.50;;;4.60;;
11675;SDS011;5894;42.768;23.404;2023-07-13T14:13:58;9.18;;;4.68;;
11675;SDS011;5894;42.768;23.404;2023-07-13T14:16:29;8.13;;;5.03;;
11675;SDS011;5894;42.768;23.404;2023-07-13T14:19:00;7.72;;;4.53;;
11675;SDS011;5894;42.768;23.404;2023-07-13T14:21:28;7.78;;;4.72;;
11675;SDS011;5894;42.768;23.404;2023-07-13T14:23:56;7.57;;;4.60;;
11675;SDS011;5894;42.768;23.404;2023-07-13T14:26:24;6.63;;;4.60;;
11675;SDS011;5894;42.768;23.404;2023-07-13T14:28:53;6.18;;;4.10;;
11675;SDS011;5894;42.768;23.404;2023-07-13T14:31:22;6.13;;;4.30;;
11675;SDS011;5894;42.768;23.404;2023-07-13T14:33:51;8.20;;;4.70;;
11675;SDS011;5894;42.768;23.404;2023-07-13T14:36:27;7.45;;;4.20;;
11675;SDS011;5894;42.768;23.404;2023-07-13T14:38:56;7.47;;;4.30;;
11675;SDS011;5894;42.768;23.404;2023-07-13T14:41:24;6.97;;;4.00;;
11675;SDS011;5894;42.768;23.404;2023-07-13T14:43:52;6.38;;;4.18;;
11675;SDS011;5894;42.768;23.404;2023-07-13T14:46:24;7.68;;;4.47;;
11675;SDS011;5894;42.768;23.404;2023-07-13T14:48:57;8.85;;;4.53;;
11675;SDS011;5894;42.768;23.404;2023-07-13T14:51:30;7.55;;;4.32;;
11675;SDS011;5894;42.768;23.404;2023-07-13T14:53:58;8.73;;;4.25;;
11675;SDS011;5894;42.768;23.404;2023-07-13T14:56:29;8.32;;;4.20;;
11675;SDS011;5894;42.768;23.404;2023-07-13T14:58:56;7.10;;;4.45;;
11675;SDS011;5894;42.768;23.404;2023-07-13T15:01:23;5.88;;;4.10;;
11675;SDS011;5894;42.768;23.404;2023-07-13T15:03:51;5.82;;;4.00;;